createdAt,value
2018-04-09T00:02:06.908Z,65.91
2018-04-09T00:04:36.696Z,65.58
2018-04-09T00:07:06.055Z,65.21
2018-04-09T00:09:36.547Z,64.86
2018-04-09T00:12:09.890Z,64.49
2018-04-09T00:14:39.946Z,63.92
2018-04-09T00:17:09.716Z,63.65
2018-04-09T00:19:38.804Z,63.77
2018-04-09T00:24:42.646Z,64.05
2018-04-09T00:27:11.961Z,64.41
2018-04-09T00:29:41.144Z,64.55
2018-04-09T00:32:10.150Z,64.45
2018-04-09T00:34:39.323Z,64.05
2018-04-09T00:37:12.423Z,64.22
2018-04-09T00:39:41.464Z,64.26
2018-04-09T00:42:11.369Z,64.21
2018-04-09T00:47:15.002Z,63.68
2018-04-09T00:49:44.914Z,63.71
2018-04-09T00:52:14.869Z,63.74
2018-04-09T00:54:44.694Z,63.72
2018-04-09T00:57:13.673Z,63.85
2018-04-09T00:59:48.472Z,64.01
2018-04-09T01:02:18.291Z,63.82
2018-04-09T01:04:47.616Z,64.15
2018-04-09T01:07:16.783Z,64.54
2018-04-09T01:09:45.881Z,64.58
2018-04-09T01:12:16.435Z,64.80
2018-04-09T01:14:45.394Z,65.10
2018-04-09T01:17:14.444Z,65.46
2018-04-09T01:19:44.301Z,65.81
2018-04-09T01:22:14.360Z,65.67
2018-04-09T01:24:43.392Z,65.76
2018-04-09T01:27:13.021Z,65.81
2018-04-09T01:32:16.471Z,66.28
2018-04-09T01:34:46.655Z,66.39
2018-04-09T01:37:16.630Z,66.65
2018-04-09T01:39:45.759Z,66.79
2018-04-09T01:42:14.766Z,66.99
2018-04-09T01:44:46.015Z,67.04
2018-04-09T01:47:15.870Z,66.93
2018-04-09T01:49:45.130Z,67.21
2018-04-09T01:52:14.293Z,67.10
2018-04-09T01:54:44.085Z,67.21
2018-04-09T01:57:13.099Z,67.27
2018-04-09T01:59:42.089Z,67.29
2018-04-09T02:02:11.194Z,67.30
2018-04-09T02:04:40.214Z,67.12
2018-04-09T02:07:09.489Z,67.33
2018-04-09T02:09:38.575Z,67.40
2018-04-09T02:12:07.912Z,67.13
2018-04-09T02:14:36.906Z,67.43
2018-04-09T02:17:06.075Z,67.55
2018-04-09T02:19:35.182Z,67.54
2018-04-09T02:22:05.188Z,67.77
2018-04-09T02:24:34.288Z,67.76
2018-04-09T02:27:03.377Z,68.09
2018-04-09T02:29:32.982Z,68.16
2018-04-09T02:32:01.981Z,68.30
2018-04-09T02:34:40.287Z,68.51
2018-04-09T02:37:09.283Z,68.34
2018-04-09T02:39:38.479Z,68.55
2018-04-09T02:42:07.681Z,68.66
2018-04-09T02:44:36.877Z,68.81
2018-04-09T02:47:06.078Z,68.92
2018-04-09T02:49:36.781Z,69.07
2018-04-09T02:52:05.746Z,69.37
2018-04-09T02:54:35.870Z,69.84
2018-04-09T02:57:06.467Z,70.41
2018-04-09T02:59:35.449Z,70.91
2018-04-09T03:02:04.431Z,70.84
2018-04-09T03:04:33.351Z,71.03
2018-04-09T03:07:02.938Z,71.15
2018-04-09T03:09:31.938Z,71.56
2018-04-09T03:12:03.697Z,71.68
2018-04-09T03:14:33.127Z,71.53
2018-04-09T03:17:02.128Z,71.85
2018-04-09T03:19:37.331Z,72.35
2018-04-09T03:22:06.261Z,72.78
2018-04-09T03:24:35.122Z,73.10
2018-04-09T03:27:04.020Z,73.41
2018-04-09T03:29:32.875Z,73.39
2018-04-09T03:32:01.717Z,73.32
2018-04-09T03:34:32.625Z,72.99
2018-04-09T03:37:01.471Z,73.07
2018-04-09T03:39:30.340Z,73.01
2018-04-09T03:42:00.121Z,73.31
2018-04-09T03:44:29.052Z,73.36
2018-04-09T03:46:58.099Z,73.48
2018-04-09T03:49:28.144Z,73.40
2018-04-09T03:51:57.354Z,73.94
2018-04-09T03:54:27.274Z,74.35
2018-04-09T03:56:58.070Z,74.03
2018-04-09T03:59:28.289Z,73.56
2018-04-09T04:01:58.182Z,72.83
2018-04-09T04:04:28.172Z,71.36
2018-04-09T04:06:57.258Z,70.20
2018-04-09T04:09:27.228Z,68.13
2018-04-09T04:11:57.908Z,65.52
2018-04-09T04:14:26.966Z,63.97
2018-04-09T04:17:08.127Z,62.23
2018-04-09T04:19:48.693Z,61.71
2018-04-09T04:22:18.056Z,60.18
2018-04-09T04:24:47.315Z,61.17
2018-04-09T04:27:17.343Z,60.01
2018-04-09T04:29:49.991Z,57.43
2018-04-09T04:32:19.049Z,55.61
2018-04-09T04:34:48.106Z,53.32
2018-04-09T04:37:20.062Z,52.73
2018-04-09T04:39:49.011Z,51.57
2018-04-09T04:42:18.909Z,53.14
2018-04-09T04:44:49.466Z,53.35
2018-04-09T04:47:18.706Z,52.52
2018-04-09T04:49:49.770Z,51.79
2018-04-09T04:54:52.914Z,52.92
2018-04-09T04:57:22.977Z,55.63
2018-04-09T04:59:53.155Z,57.58
2018-04-09T05:02:22.102Z,61.01
2018-04-09T05:04:51.929Z,61.51
2018-04-09T05:07:23.927Z,61.89
2018-04-09T05:09:53.895Z,60.96
2018-04-09T05:12:22.908Z,60.36
2018-04-09T05:14:52.694Z,60.73
2018-04-09T05:17:22.538Z,61.08
2018-04-09T05:19:52.432Z,61.08
2018-04-09T05:22:23.127Z,60.77
2018-04-09T05:24:52.861Z,59.94
2018-04-09T05:27:22.167Z,60.00
2018-04-09T05:29:53.038Z,59.89
2018-04-09T05:32:22.173Z,59.27
2018-04-09T05:34:51.704Z,58.79
2018-04-09T05:37:20.810Z,57.72
2018-04-09T05:39:51.958Z,52.94
2018-04-09T05:42:21.163Z,50.05
2018-04-09T05:44:51.024Z,49.52
2018-04-09T05:47:19.989Z,49.73
2018-04-09T05:49:49.984Z,49.57
2018-04-09T05:52:20.541Z,52.93
2018-04-09T05:54:52.999Z,53.20
2018-04-09T05:57:23.679Z,50.10
2018-04-09T05:59:52.701Z,46.93
2018-04-09T06:02:21.804Z,46.99
2018-04-09T06:07:25.005Z,40.91
2018-04-09T06:09:54.490Z,40.39
2018-04-09T06:12:24.290Z,41.39
2018-04-09T06:14:53.340Z,40.03
2018-04-09T06:17:22.999Z,36.20
2018-04-09T06:19:52.712Z,35.29
2018-04-09T06:22:21.535Z,32.73
2018-04-09T06:24:50.373Z,32.32
2018-04-09T06:27:19.264Z,33.78
2018-04-09T06:29:48.083Z,33.46
2018-04-09T06:32:16.912Z,34.41
2018-04-09T06:34:45.806Z,34.51
2018-04-09T06:37:14.775Z,37.58
2018-04-09T06:39:43.642Z,40.33
2018-04-09T06:42:12.577Z,40.04
2018-04-09T06:44:41.581Z,38.68
2018-04-09T06:47:10.496Z,37.38
2018-04-09T06:49:40.354Z,35.05
2018-04-09T06:52:09.276Z,35.23
2018-04-09T06:54:38.172Z,37.26
2018-04-09T06:57:07.095Z,37.60
2018-04-09T06:59:35.980Z,36.23
2018-04-09T07:02:04.832Z,35.95
2018-04-09T07:04:33.946Z,36.43
2018-04-09T07:07:03.602Z,36.19
2018-04-09T07:09:33.091Z,34.83
2018-04-09T07:12:03.165Z,35.52
2018-04-09T07:14:32.221Z,35.66
2018-04-09T07:17:01.505Z,35.14
2018-04-09T07:19:31.231Z,35.08
2018-04-09T07:22:00.075Z,35.23
2018-04-09T07:24:29.003Z,35.60
2018-04-09T07:26:57.885Z,36.23
2018-04-09T07:29:26.852Z,39.17
2018-04-09T07:31:55.655Z,39.70
2018-04-09T07:34:24.535Z,40.23
2018-04-09T07:36:53.440Z,39.38
2018-04-09T07:39:22.325Z,39.86
2018-04-09T07:41:52.035Z,41.19
2018-04-09T07:44:20.940Z,43.72
2018-04-09T07:46:49.830Z,46.15
2018-04-09T07:49:18.683Z,47.87
2018-04-09T07:51:47.612Z,48.17
2018-04-09T07:54:16.518Z,47.83
2018-04-09T07:56:45.450Z,47.92
2018-04-09T07:59:14.324Z,48.21
2018-04-09T08:01:43.192Z,47.73
2018-04-09T08:04:12.869Z,48.50
2018-04-09T08:06:41.737Z,47.29
2018-04-09T08:09:10.616Z,46.75
2018-04-09T08:11:39.600Z,47.33
2018-04-09T08:14:10.310Z,45.15
2018-04-09T08:16:39.627Z,44.85
2018-04-09T08:19:08.837Z,46.76
2018-04-09T08:21:37.907Z,46.03
2018-04-09T08:24:08.075Z,48.12
2018-04-09T08:26:37.236Z,47.61
2018-04-09T08:29:07.141Z,47.45
2018-04-09T08:31:36.181Z,47.34
2018-04-09T08:34:07.488Z,46.76
2018-04-09T08:36:36.625Z,47.87
2018-04-09T08:39:05.711Z,46.47
2018-04-09T08:41:35.441Z,47.32
2018-04-09T08:44:04.625Z,47.24
2018-04-09T08:46:34.600Z,47.90
2018-04-09T08:49:05.446Z,47.21
2018-04-09T08:51:35.672Z,46.35
2018-04-09T08:54:04.902Z,45.79
2018-04-09T08:56:34.814Z,45.94
2018-04-09T08:59:04.850Z,46.61
2018-04-09T09:01:33.862Z,47.01
2018-04-09T09:04:03.341Z,46.75
2018-04-09T09:06:33.399Z,46.88
2018-04-09T09:09:02.665Z,46.69
2018-04-09T09:11:31.763Z,46.75
2018-04-09T09:14:02.314Z,46.29
2018-04-09T09:16:31.344Z,47.72
2018-04-09T09:19:01.408Z,48.15
2018-04-09T09:21:30.509Z,46.81
2018-04-09T09:23:59.499Z,46.29
2018-04-09T09:26:33.220Z,46.56
2018-04-09T09:29:02.969Z,46.40
2018-04-09T09:31:32.067Z,46.63
2018-04-09T09:34:01.902Z,46.49
2018-04-09T09:36:30.828Z,46.68
2018-04-09T09:38:59.662Z,46.39
2018-04-09T09:41:28.527Z,46.91
2018-04-09T09:43:57.496Z,47.41
2018-04-09T09:46:26.333Z,48.16
2018-04-09T09:48:58.026Z,47.87
2018-04-09T09:51:26.885Z,47.70
2018-04-09T09:53:55.753Z,48.65
2018-04-09T09:56:24.632Z,48.48
2018-04-09T09:58:53.442Z,48.10
2018-04-09T10:01:29.055Z,49.21
2018-04-09T10:03:58.241Z,49.31
2018-04-09T10:06:27.387Z,50.01
2018-04-09T10:08:58.116Z,50.36
2018-04-09T10:11:27.237Z,48.96
2018-04-09T10:13:56.243Z,49.24
2018-04-09T10:19:00.825Z,48.81
2018-04-09T10:21:30.124Z,48.47
2018-04-09T10:26:34.293Z,47.99
2018-04-09T10:29:04.371Z,46.50
2018-04-09T10:31:36.649Z,46.24
2018-04-09T10:34:05.846Z,45.92
2018-04-09T10:36:34.837Z,45.83
2018-04-09T10:39:04.236Z,45.98
2018-04-09T10:41:33.148Z,45.95
2018-04-09T10:44:02.066Z,46.48
2018-04-09T10:46:31.289Z,46.67
2018-04-09T10:49:01.444Z,46.41
2018-04-09T10:51:34.079Z,45.59
2018-04-09T10:54:03.118Z,45.81
2018-04-09T10:56:32.213Z,45.93
2018-04-09T10:59:02.935Z,46.58
2018-04-09T11:01:31.832Z,46.34
2018-04-09T11:04:00.737Z,46.02
2018-04-09T11:06:29.671Z,45.53
2018-04-09T11:08:58.516Z,45.67
2018-04-09T11:11:27.438Z,45.17
2018-04-09T11:13:58.864Z,45.92
2018-04-09T11:16:27.867Z,47.17
2018-04-09T11:18:56.675Z,49.17
2018-04-09T11:21:27.139Z,50.84
2018-04-09T11:23:56.132Z,53.04
2018-04-09T11:26:25.086Z,53.07
2018-04-09T11:28:54.864Z,54.85
2018-04-09T11:31:24.079Z,57.20
2018-04-09T11:33:53.595Z,57.56
2018-04-09T11:39:08.470Z,56.57
2018-04-09T11:41:38.512Z,57.01
2018-04-09T11:44:09.616Z,58.59
2018-04-09T11:46:39.695Z,58.02
2018-04-09T11:49:08.991Z,58.68
2018-04-09T11:51:38.089Z,59.61
2018-04-09T11:54:07.623Z,59.64
2018-04-09T11:56:37.554Z,60.07
2018-04-09T11:59:07.612Z,61.57
2018-04-09T12:01:36.612Z,61.31
2018-04-09T12:04:05.674Z,60.24
2018-04-09T12:06:34.746Z,60.54
2018-04-09T12:09:05.649Z,60.58
2018-04-09T12:11:34.781Z,62.20
2018-04-09T12:14:05.185Z,62.22
2018-04-09T12:16:35.973Z,62.86
2018-04-09T12:19:04.974Z,62.42
2018-04-09T12:21:34.004Z,62.67
2018-04-09T12:24:05.762Z,62.72
2018-04-09T12:26:34.856Z,63.69
2018-04-09T12:29:04.038Z,63.64
2018-04-09T12:31:37.862Z,63.32
2018-04-09T12:34:08.784Z,61.94
2018-04-09T12:36:37.730Z,63.27
2018-04-09T12:39:07.037Z,64.09
2018-04-09T12:41:38.373Z,64.60
2018-04-09T12:46:47.083Z,65.59
2018-04-09T12:49:16.792Z,65.65
2018-04-09T12:51:45.808Z,66.83
2018-04-09T12:54:14.827Z,67.40
2018-04-09T12:56:43.888Z,68.88
2018-04-09T12:59:12.948Z,67.67
2018-04-09T13:01:42.912Z,68.33
2018-04-09T13:04:12.866Z,68.93
2018-04-09T13:06:42.131Z,69.31
2018-04-09T13:09:11.174Z,68.65
2018-04-09T13:11:40.394Z,67.89
2018-04-09T13:14:13.307Z,68.20
2018-04-09T13:16:42.324Z,68.08
2018-04-09T13:19:11.395Z,68.80
2018-04-09T13:21:41.167Z,68.69
2018-04-09T13:24:11.214Z,68.93
2018-04-09T13:26:41.667Z,69.55
2018-04-09T13:29:10.872Z,69.56
2018-04-09T13:31:40.868Z,69.23
2018-04-09T13:34:10.080Z,69.31
2018-04-09T13:36:39.224Z,69.54
2018-04-09T13:39:09.218Z,69.25
2018-04-09T13:41:39.308Z,68.47
2018-04-09T13:44:08.523Z,67.80
2018-04-09T13:46:41.282Z,68.15
2018-04-09T13:49:10.439Z,67.91
2018-04-09T13:51:39.372Z,68.70
2018-04-09T13:54:09.260Z,68.18
2018-04-09T13:56:38.250Z,68.37
2018-04-09T13:59:08.244Z,68.79
2018-04-09T14:01:40.558Z,69.62
2018-04-09T14:04:09.539Z,70.24
2018-04-09T14:06:39.608Z,70.40
2018-04-09T14:09:08.921Z,71.06
2018-04-09T14:11:38.473Z,71.47
2018-04-09T14:14:08.335Z,71.20
2018-04-09T14:16:38.141Z,72.11
2018-04-09T14:19:07.430Z,72.66
2018-04-09T14:21:36.335Z,72.52
2018-04-09T14:24:05.728Z,72.20
2018-04-09T14:26:35.666Z,73.58
2018-04-09T14:29:04.978Z,73.64
2018-04-09T14:31:36.750Z,74.17
2018-04-09T14:34:05.749Z,75.10
2018-04-09T14:36:36.546Z,75.08
2018-04-09T14:39:06.599Z,74.52
2018-04-09T14:41:35.737Z,75.06
2018-04-09T14:44:04.827Z,74.54
2018-04-09T14:46:35.146Z,74.08
2018-04-09T14:49:04.208Z,74.83
2018-04-09T14:51:34.074Z,75.26
2018-04-09T14:54:03.276Z,75.69
2018-04-09T14:56:33.021Z,76.06
2018-04-09T14:59:02.901Z,76.02
2018-04-09T15:01:34.507Z,76.24
2018-04-09T15:04:03.545Z,76.56
2018-04-09T15:06:32.536Z,77.41
2018-04-09T15:09:03.292Z,77.78
2018-04-09T15:11:32.372Z,77.37
2018-04-09T15:14:01.366Z,77.16
2018-04-09T15:16:37.237Z,77.24
2018-04-09T15:19:07.000Z,76.70
2018-04-09T15:21:39.610Z,77.12
2018-04-09T15:24:08.991Z,77.36
2018-04-09T15:26:39.185Z,77.31
2018-04-09T15:29:08.556Z,76.99
2018-04-09T15:31:39.086Z,77.09
2018-04-09T15:34:08.142Z,77.34
2018-04-09T15:36:38.274Z,76.97
2018-04-09T15:39:09.350Z,76.71
2018-04-09T15:41:38.436Z,76.59
2018-04-09T15:44:09.998Z,76.55
2018-04-09T15:46:39.190Z,76.04
2018-04-09T15:49:08.928Z,76.05
2018-04-09T15:51:37.933Z,75.68
2018-04-09T15:54:06.896Z,75.43
2018-04-09T15:56:35.982Z,75.37
2018-04-09T15:59:05.878Z,75.96
2018-04-09T16:01:35.767Z,77.57
2018-04-09T16:04:05.481Z,78.41
2018-04-09T16:06:34.840Z,79.12
2018-04-09T16:09:04.069Z,79.60
2018-04-09T16:11:33.025Z,80.83
2018-04-09T16:16:35.994Z,82.00
2018-04-09T16:19:05.869Z,82.79
2018-04-09T16:21:35.894Z,84.18
2018-04-09T16:24:05.262Z,85.24
2018-04-09T16:26:35.328Z,85.40
2018-04-09T16:29:05.144Z,86.78
2018-04-09T16:31:34.408Z,87.06
2018-04-09T16:34:03.557Z,87.58
2018-04-09T16:36:34.059Z,88.22
2018-04-09T16:39:03.321Z,88.39
2018-04-09T16:41:32.426Z,88.43
2018-04-09T16:46:37.490Z,89.59
2018-04-09T16:49:06.745Z,89.42
2018-04-09T16:51:36.558Z,89.46
2018-04-09T16:54:09.809Z,90.07
2018-04-09T16:56:38.902Z,90.17
2018-04-09T16:59:08.098Z,90.52
2018-04-09T17:01:37.504Z,90.60
2018-04-09T17:04:06.607Z,91.10
2018-04-09T17:06:36.552Z,91.50
2018-04-09T17:09:05.768Z,91.71
2018-04-09T17:11:34.919Z,91.59
2018-04-09T17:14:04.508Z,91.81
2018-04-09T17:16:33.769Z,92.03
2018-04-09T17:22:01.969Z,92.31
2018-04-09T17:24:31.726Z,92.73
2018-04-09T17:27:01.147Z,92.97
2018-04-09T17:29:31.211Z,92.47
2018-04-09T17:32:00.154Z,92.52
2018-04-09T17:34:29.489Z,92.78
2018-04-09T17:36:59.059Z,92.87
2018-04-09T17:39:28.199Z,92.84
2018-04-09T17:41:58.698Z,92.80
2018-04-09T17:44:27.935Z,92.26
2018-04-09T17:46:58.754Z,92.93
2018-04-09T17:49:28.065Z,93.46
2018-04-09T17:51:57.942Z,93.40
2018-04-09T17:54:27.091Z,93.35
2018-04-09T17:56:55.953Z,92.94
2018-04-09T17:59:26.801Z,92.62
2018-04-09T18:01:55.843Z,92.52
2018-04-09T18:04:25.752Z,92.66
2018-04-09T18:06:56.223Z,92.34
2018-04-09T18:09:25.198Z,92.11
2018-04-09T18:11:59.307Z,91.90
2018-04-09T18:14:28.307Z,91.72
2018-04-09T18:17:00.447Z,92.03
2018-04-09T18:19:30.525Z,91.82
2018-04-09T18:22:00.443Z,91.88
2018-04-09T18:24:29.747Z,91.36
2018-04-09T18:26:59.732Z,91.26
2018-04-09T18:29:29.485Z,91.30
2018-04-09T18:32:00.192Z,91.36
2018-04-09T18:34:30.295Z,91.56
2018-04-09T18:36:59.267Z,91.37
2018-04-09T18:39:28.401Z,90.88
2018-04-09T18:41:57.428Z,90.49
2018-04-09T18:44:26.782Z,90.81
2018-04-09T18:46:57.066Z,90.81
2018-04-09T18:49:27.340Z,90.71
2018-04-09T18:51:57.125Z,90.33
2018-04-09T18:54:26.905Z,90.08
2018-04-09T18:56:56.012Z,90.13
2018-04-09T18:59:25.011Z,90.58
2018-04-09T19:01:58.626Z,90.95
2018-04-09T19:04:27.699Z,91.06
2018-04-09T19:06:56.839Z,91.03
2018-04-09T19:09:26.823Z,90.26
2018-04-09T19:11:56.120Z,89.75
2018-04-09T19:14:25.363Z,89.31
2018-04-09T19:16:54.448Z,88.92
2018-04-09T19:19:24.452Z,89.44
2018-04-09T19:21:54.029Z,89.74
2018-04-09T19:24:23.234Z,90.28
2018-04-09T19:26:53.247Z,90.40
2018-04-09T19:29:22.397Z,90.25
2018-04-09T19:31:53.431Z,90.05
2018-04-09T19:34:22.729Z,89.85
2018-04-09T19:36:57.671Z,90.19
2018-04-09T19:39:48.378Z,90.12
2018-04-09T19:44:52.207Z,89.65
2018-04-09T19:47:27.238Z,89.49
2018-04-09T19:49:58.075Z,89.50
2018-04-09T19:52:29.087Z,89.71
2018-04-09T19:54:59.855Z,89.18
2018-04-09T19:57:28.845Z,89.05
2018-04-09T19:59:58.744Z,89.77
2018-04-09T20:02:28.020Z,89.82
2018-04-09T20:04:57.016Z,89.33
2018-04-09T20:07:26.328Z,89.22
2018-04-09T20:09:55.350Z,89.05
2018-04-09T20:12:25.045Z,88.62
2018-04-09T20:14:56.691Z,89.48
2018-04-09T20:17:28.369Z,89.37
2018-04-09T20:20:00.205Z,89.32
2018-04-09T20:22:29.395Z,89.19
2018-04-09T20:24:58.426Z,89.79
2018-04-09T20:27:27.994Z,89.56
2018-04-09T20:29:56.898Z,88.81
2018-04-09T20:32:25.760Z,88.28
2018-04-09T20:34:55.520Z,88.38
2018-04-09T20:37:24.365Z,88.21
2018-04-09T20:39:53.224Z,87.58
2018-04-09T20:42:23.019Z,87.87
2018-04-09T20:44:52.013Z,87.79
2018-04-09T20:47:20.875Z,87.87
2018-04-09T20:49:52.538Z,88.02
2018-04-09T20:52:21.432Z,88.01
2018-04-09T20:54:50.439Z,87.64
2018-04-09T20:57:24.379Z,87.17
2018-04-09T20:59:53.257Z,87.38
2018-04-09T21:02:22.095Z,87.24
2018-04-09T21:04:51.190Z,87.17
2018-04-09T21:07:20.072Z,87.51
2018-04-09T21:09:48.967Z,87.64
2018-04-09T21:12:17.895Z,87.89
2018-04-09T21:14:47.696Z,87.93
2018-04-09T21:17:17.612Z,87.42
2018-04-09T21:19:51.418Z,87.43
2018-04-09T21:22:21.436Z,87.39
2018-04-09T21:24:50.648Z,87.32
2018-04-09T21:27:19.733Z,87.14
2018-04-09T21:29:48.726Z,87.45
2018-04-09T21:32:17.722Z,87.74
2018-04-09T21:34:51.421Z,87.67
2018-04-09T21:37:20.370Z,87.70
2018-04-09T21:39:49.312Z,87.83
2018-04-09T21:42:18.469Z,87.44
2018-04-09T21:44:47.503Z,87.69
2018-04-09T21:47:16.393Z,87.90
2018-04-09T21:49:48.176Z,87.41
2018-04-09T21:52:17.061Z,88.16
2018-04-09T21:54:46.210Z,88.30
2018-04-09T21:57:16.254Z,87.99
2018-04-09T21:59:45.103Z,88.07
2018-04-09T22:02:14.108Z,88.22
2018-04-09T22:04:43.208Z,87.98
2018-04-09T22:07:12.337Z,87.74
2018-04-09T22:09:41.436Z,87.35
2018-04-09T22:12:11.310Z,86.77
2018-04-09T22:14:40.301Z,86.48
2018-04-09T22:17:09.459Z,86.50
2018-04-09T22:19:38.505Z,86.44
2018-04-09T22:22:07.633Z,86.19
2018-04-09T22:24:36.684Z,86.01
2018-04-09T22:27:05.778Z,85.71
2018-04-09T22:29:35.645Z,85.39
2018-04-09T22:32:05.149Z,85.20
2018-04-09T22:34:34.148Z,85.00
2018-04-09T22:37:03.287Z,84.86
2018-04-09T22:39:32.289Z,85.06
2018-04-09T22:42:02.246Z,84.96
2018-04-09T22:44:31.146Z,84.57
2018-04-09T22:47:11.261Z,84.75
2018-04-09T22:49:40.344Z,84.48
2018-04-09T22:52:09.442Z,84.36
2018-04-09T22:54:38.324Z,84.64
2018-04-09T22:57:07.394Z,85.27
2018-04-09T22:59:36.516Z,85.40
2018-04-09T23:02:06.345Z,85.59
2018-04-09T23:04:35.342Z,85.62
2018-04-09T23:07:04.378Z,85.26
2018-04-09T23:09:35.167Z,85.58
2018-04-09T23:12:04.307Z,85.96
2018-04-09T23:14:33.353Z,85.79
2018-04-09T23:17:03.570Z,85.86
2018-04-09T23:19:32.459Z,85.91
2018-04-09T23:22:02.073Z,85.76
2018-04-09T23:24:35.056Z,85.89
2018-04-09T23:27:05.674Z,85.90
2018-04-09T23:29:34.578Z,86.00
2018-04-09T23:32:03.681Z,86.08
2018-04-09T23:34:33.799Z,85.66
2018-04-09T23:37:02.689Z,84.74
2018-04-09T23:39:33.841Z,84.25
2018-04-09T23:42:02.850Z,83.98
2018-04-09T23:44:32.294Z,83.56
2018-04-09T23:47:01.324Z,82.50
2018-04-09T23:49:30.572Z,82.12
2018-04-09T23:51:59.617Z,81.40
2018-04-09T23:54:32.489Z,80.46
2018-04-09T23:57:02.359Z,80.31
2018-04-09T23:59:32.432Z,79.87
